sensor_id;sensor_type;location;lat;lon;timestamp;temperature;humidity
75621;DHT22;64574;48.506;-2.750;2023-05-07T00:00:26;15.50;80.00
75621;DHT22;64574;48.506;-2.750;2023-05-07T00:02:52;15.50;79.80
75621;DHT22;64574;48.506;-2.750;2023-05-07T00:05:18;15.50;79.70
75621;DHT22;64574;48.506;-2.750;2023-05-07T00:07:44;15.50;79.50
75621;DHT22;64574;48.506;-2.750;2023-05-07T00:10:10;15.50;79.30
75621;DHT22;64574;48.506;-2.750;2023-05-07T00:12:37;15.50;79.60
75621;DHT22;64574;48.506;-2.750;2023-05-07T00:15:03;15.40;79.90
75621;DHT22;64574;48.506;-2.750;2023-05-07T00:17:29;15.40;80.40
75621;DHT22;64574;48.506;-2.750;2023-05-07T00:19:55;15.40;80.30
75621;DHT22;64574;48.506;-2.750;2023-05-07T00:22:21;15.40;80.40
75621;DHT22;64574;48.506;-2.750;2023-05-07T00:24:47;15.40;80.50
75621;DHT22;64574;48.506;-2.750;2023-05-07T00:27:13;15.40;80.50
75621;DHT22;64574;48.506;-2.750;2023-05-07T00:29:39;15.40;80.80
75621;DHT22;64574;48.506;-2.750;2023-05-07T00:32:04;15.40;80.70
75621;DHT22;64574;48.506;-2.750;2023-05-07T00:34:30;15.40;81.00
75621;DHT22;64574;48.506;-2.750;2023-05-07T00:36:56;15.50;81.10
75621;DHT22;64574;48.506;-2.750;2023-05-07T00:39:21;15.50;80.90
75621;DHT22;64574;48.506;-2.750;2023-05-07T00:41:47;15.40;80.90
75621;DHT22;64574;48.506;-2.750;2023-05-07T00:44:13;15.50;81.10
75621;DHT22;64574;48.506;-2.750;2023-05-07T00:46:40;15.50;81.00
75621;DHT22;64574;48.506;-2.750;2023-05-07T00:49:06;15.50;81.10
75621;DHT22;64574;48.506;-2.750;2023-05-07T00:51:32;15.40;81.00
75621;DHT22;64574;48.506;-2.750;2023-05-07T00:53:59;15.40;81.10
75621;DHT22;64574;48.506;-2.750;2023-05-07T00:56:25;15.40;81.00
75621;DHT22;64574;48.506;-2.750;2023-05-07T00:58:50;15.40;81.40
75621;DHT22;64574;48.506;-2.750;2023-05-07T01:01:16;15.40;81.20
75621;DHT22;64574;48.506;-2.750;2023-05-07T01:03:42;15.40;81.20
75621;DHT22;64574;48.506;-2.750;2023-05-07T01:06:08;15.40;81.10
75621;DHT22;64574;48.506;-2.750;2023-05-07T01:08:38;15.40;81.30
75621;DHT22;64574;48.506;-2.750;2023-05-07T01:11:06;15.50;81.80
75621;DHT22;64574;48.506;-2.750;2023-05-07T01:13:32;15.50;81.80
75621;DHT22;64574;48.506;-2.750;2023-05-07T01:15:58;15.50;81.90
75621;DHT22;64574;48.506;-2.750;2023-05-07T01:18:24;15.50;81.70
75621;DHT22;64574;48.506;-2.750;2023-05-07T01:20:51;15.40;81.50
75621;DHT22;64574;48.506;-2.750;2023-05-07T01:23:18;15.40;81.60
75621;DHT22;64574;48.506;-2.750;2023-05-07T01:25:54;15.30;81.50
75621;DHT22;64574;48.506;-2.750;2023-05-07T01:28:20;15.30;81.80
75621;DHT22;64574;48.506;-2.750;2023-05-07T01:30:55;15.30;81.50
75621;DHT22;64574;48.506;-2.750;2023-05-07T01:33:22;15.30;82.00
75621;DHT22;64574;48.506;-2.750;2023-05-07T01:35:51;15.20;82.00
75621;DHT22;64574;48.506;-2.750;2023-05-07T01:38:18;15.20;82.30
75621;DHT22;64574;48.506;-2.750;2023-05-07T01:40:45;15.30;81.90
75621;DHT22;64574;48.506;-2.750;2023-05-07T01:43:10;15.40;81.90
75621;DHT22;64574;48.506;-2.750;2023-05-07T01:45:36;15.30;81.70
75621;DHT22;64574;48.506;-2.750;2023-05-07T01:48:03;15.30;81.80
75621;DHT22;64574;48.506;-2.750;2023-05-07T01:50:30;15.30;81.90
75621;DHT22;64574;48.506;-2.750;2023-05-07T01:52:57;15.30;81.50
75621;DHT22;64574;48.506;-2.750;2023-05-07T01:55:23;15.40;81.70
75621;DHT22;64574;48.506;-2.750;2023-05-07T01:57:49;15.30;81.50
75621;DHT22;64574;48.506;-2.750;2023-05-07T02:00:15;15.30;81.80
75621;DHT22;64574;48.506;-2.750;2023-05-07T02:02:40;15.20;81.60
75621;DHT22;64574;48.506;-2.750;2023-05-07T02:05:06;15.10;82.10
75621;DHT22;64574;48.506;-2.750;2023-05-07T02:07:32;15.00;82.30
75621;DHT22;64574;48.506;-2.750;2023-05-07T02:09:57;14.90;82.50
75621;DHT22;64574;48.506;-2.750;2023-05-07T02:12:23;14.90;82.60
75621;DHT22;64574;48.506;-2.750;2023-05-07T02:14:49;15.00;82.30
75621;DHT22;64574;48.506;-2.750;2023-05-07T02:17:15;15.00;82.30
75621;DHT22;64574;48.506;-2.750;2023-05-07T02:19:40;15.00;82.00
75621;DHT22;64574;48.506;-2.750;2023-05-07T02:22:07;14.80;82.40
75621;DHT22;64574;48.506;-2.750;2023-05-07T02:24:32;14.70;83.20
75621;DHT22;64574;48.506;-2.750;2023-05-07T02:26:58;14.70;83.30
75621;DHT22;64574;48.506;-2.750;2023-05-07T02:29:24;14.70;83.20
75621;DHT22;64574;48.506;-2.750;2023-05-07T02:31:50;14.70;83.40
75621;DHT22;64574;48.506;-2.750;2023-05-07T02:34:18;14.90;83.00
75621;DHT22;64574;48.506;-2.750;2023-05-07T02:36:44;14.90;83.00
75621;DHT22;64574;48.506;-2.750;2023-05-07T02:39:09;15.00;82.30
75621;DHT22;64574;48.506;-2.750;2023-05-07T02:41:35;15.00;82.00
75621;DHT22;64574;48.506;-2.750;2023-05-07T02:44:01;15.00;81.90
75621;DHT22;64574;48.506;-2.750;2023-05-07T02:46:26;15.00;81.80
75621;DHT22;64574;48.506;-2.750;2023-05-07T02:48:52;14.70;82.80
75621;DHT22;64574;48.506;-2.750;2023-05-07T02:51:20;14.80;82.80
75621;DHT22;64574;48.506;-2.750;2023-05-07T02:53:46;14.80;82.50
75621;DHT22;64574;48.506;-2.750;2023-05-07T02:56:12;14.80;82.60
75621;DHT22;64574;48.506;-2.750;2023-05-07T02:58:38;14.70;82.90
75621;DHT22;64574;48.506;-2.750;2023-05-07T03:01:08;14.70;82.80
75621;DHT22;64574;48.506;-2.750;2023-05-07T03:03:34;14.80;82.70
75621;DHT22;64574;48.506;-2.750;2023-05-07T03:06:00;14.80;82.00
75621;DHT22;64574;48.506;-2.750;2023-05-07T03:08:26;14.80;82.00
75621;DHT22;64574;48.506;-2.750;2023-05-07T03:10:52;14.90;81.90
75621;DHT22;64574;48.506;-2.750;2023-05-07T03:13:17;15.00;81.70
75621;DHT22;64574;48.506;-2.750;2023-05-07T03:15:43;15.00;81.20
75621;DHT22;64574;48.506;-2.750;2023-05-07T03:18:09;14.70;81.40
75621;DHT22;64574;48.506;-2.750;2023-05-07T03:20:34;14.80;81.50
75621;DHT22;64574;48.506;-2.750;2023-05-07T03:23:01;14.80;81.50
75621;DHT22;64574;48.506;-2.750;2023-05-07T03:25:27;14.70;81.90
75621;DHT22;64574;48.506;-2.750;2023-05-07T03:27:53;14.70;82.00
75621;DHT22;64574;48.506;-2.750;2023-05-07T03:30:19;14.70;82.10
75621;DHT22;64574;48.506;-2.750;2023-05-07T03:32:45;14.70;81.80
75621;DHT22;64574;48.506;-2.750;2023-05-07T03:35:11;14.80;81.80
75621;DHT22;64574;48.506;-2.750;2023-05-07T03:37:38;14.80;81.50
75621;DHT22;64574;48.506;-2.750;2023-05-07T03:40:04;14.60;81.40
75621;DHT22;64574;48.506;-2.750;2023-05-07T03:42:30;14.50;81.40
75621;DHT22;64574;48.506;-2.750;2023-05-07T03:44:56;14.50;81.80
75621;DHT22;64574;48.506;-2.750;2023-05-07T03:47:21;14.50;82.30
75621;DHT22;64574;48.506;-2.750;2023-05-07T03:49:47;14.60;82.10
75621;DHT22;64574;48.506;-2.750;2023-05-07T03:52:14;14.70;81.80
75621;DHT22;64574;48.506;-2.750;2023-05-07T03:54:40;14.60;81.50
75621;DHT22;64574;48.506;-2.750;2023-05-07T03:57:05;14.60;81.60
75621;DHT22;64574;48.506;-2.750;2023-05-07T03:59:31;14.60;81.60
75621;DHT22;64574;48.506;-2.750;2023-05-07T04:01:56;14.70;81.30
75621;DHT22;64574;48.506;-2.750;2023-05-07T04:04:22;14.60;81.30
75621;DHT22;64574;48.506;-2.750;2023-05-07T04:06:48;14.70;81.50
75621;DHT22;64574;48.506;-2.750;2023-05-07T04:09:13;14.60;81.30
75621;DHT22;64574;48.506;-2.750;2023-05-07T04:11:39;14.50;81.50
75621;DHT22;64574;48.506;-2.750;2023-05-07T04:14:08;14.30;82.50
75621;DHT22;64574;48.506;-2.750;2023-05-07T04:16:34;14.30;82.90
75621;DHT22;64574;48.506;-2.750;2023-05-07T04:19:00;14.30;82.40
75621;DHT22;64574;48.506;-2.750;2023-05-07T04:21:26;14.40;82.50
75621;DHT22;64574;48.506;-2.750;2023-05-07T04:23:52;14.30;82.10
75621;DHT22;64574;48.506;-2.750;2023-05-07T04:26:17;14.40;82.30
75621;DHT22;64574;48.506;-2.750;2023-05-07T04:28:43;14.50;81.40
75621;DHT22;64574;48.506;-2.750;2023-05-07T04:31:08;14.30;81.70
75621;DHT22;64574;48.506;-2.750;2023-05-07T04:33:34;14.30;82.10
75621;DHT22;64574;48.506;-2.750;2023-05-07T04:36:03;14.40;81.70
75621;DHT22;64574;48.506;-2.750;2023-05-07T04:38:30;14.30;81.00
75621;DHT22;64574;48.506;-2.750;2023-05-07T04:40:56;14.30;80.90
75621;DHT22;64574;48.506;-2.750;2023-05-07T04:43:22;14.40;80.70
75621;DHT22;64574;48.506;-2.750;2023-05-07T04:45:50;14.30;80.40
75621;DHT22;64574;48.506;-2.750;2023-05-07T04:48:15;14.30;79.90
75621;DHT22;64574;48.506;-2.750;2023-05-07T04:50:41;14.30;80.20
75621;DHT22;64574;48.506;-2.750;2023-05-07T04:53:07;14.10;79.70
75621;DHT22;64574;48.506;-2.750;2023-05-07T04:55:32;14.10;80.10
75621;DHT22;64574;48.506;-2.750;2023-05-07T04:57:58;14.10;79.70
75621;DHT22;64574;48.506;-2.750;2023-05-07T05:00:25;14.00;80.10
75621;DHT22;64574;48.506;-2.750;2023-05-07T05:02:51;14.00;80.20
75621;DHT22;64574;48.506;-2.750;2023-05-07T05:05:17;14.00;80.00
75621;DHT22;64574;48.506;-2.750;2023-05-07T05:07:42;14.10;80.00
75621;DHT22;64574;48.506;-2.750;2023-05-07T05:10:08;14.10;79.80
75621;DHT22;64574;48.506;-2.750;2023-05-07T05:12:34;14.20;79.80
75621;DHT22;64574;48.506;-2.750;2023-05-07T05:14:59;14.20;79.90
75621;DHT22;64574;48.506;-2.750;2023-05-07T05:17:25;14.10;79.60
75621;DHT22;64574;48.506;-2.750;2023-05-07T05:19:50;14.10;80.10
75621;DHT22;64574;48.506;-2.750;2023-05-07T05:22:16;14.20;79.90
75621;DHT22;64574;48.506;-2.750;2023-05-07T05:24:41;14.30;79.80
75621;DHT22;64574;48.506;-2.750;2023-05-07T05:27:07;14.30;79.60
75621;DHT22;64574;48.506;-2.750;2023-05-07T05:29:33;14.40;79.70
75621;DHT22;64574;48.506;-2.750;2023-05-07T05:31:59;14.30;79.50
75621;DHT22;64574;48.506;-2.750;2023-05-07T05:34:25;14.30;79.90
75621;DHT22;64574;48.506;-2.750;2023-05-07T05:36:50;14.30;79.30
75621;DHT22;64574;48.506;-2.750;2023-05-07T05:39:16;14.50;79.10
75621;DHT22;64574;48.506;-2.750;2023-05-07T05:41:42;14.50;78.70
75621;DHT22;64574;48.506;-2.750;2023-05-07T05:44:07;14.40;79.10
75621;DHT22;64574;48.506;-2.750;2023-05-07T05:46:33;14.30;79.10
75621;DHT22;64574;48.506;-2.750;2023-05-07T05:48:59;14.30;79.40
75621;DHT22;64574;48.506;-2.750;2023-05-07T05:51:25;14.20;79.50
75621;DHT22;64574;48.506;-2.750;2023-05-07T05:53:51;14.10;79.30
75621;DHT22;64574;48.506;-2.750;2023-05-07T05:56:17;14.30;79.00
75621;DHT22;64574;48.506;-2.750;2023-05-07T05:58:42;14.40;78.60
75621;DHT22;64574;48.506;-2.750;2023-05-07T06:01:08;14.20;78.60
75621;DHT22;64574;48.506;-2.750;2023-05-07T06:03:34;14.30;78.90
75621;DHT22;64574;48.506;-2.750;2023-05-07T06:05:59;14.40;78.80
75621;DHT22;64574;48.506;-2.750;2023-05-07T06:08:28;14.40;78.30
75621;DHT22;64574;48.506;-2.750;2023-05-07T06:10:54;14.50;78.00
75621;DHT22;64574;48.506;-2.750;2023-05-07T06:13:19;14.40;78.10
75621;DHT22;64574;48.506;-2.750;2023-05-07T06:15:45;14.40;78.30
75621;DHT22;64574;48.506;-2.750;2023-05-07T06:18:11;14.40;78.30
75621;DHT22;64574;48.506;-2.750;2023-05-07T06:20:37;14.40;78.60
75621;DHT22;64574;48.506;-2.750;2023-05-07T06:23:02;14.30;78.50
75621;DHT22;64574;48.506;-2.750;2023-05-07T06:25:28;14.20;77.90
75621;DHT22;64574;48.506;-2.750;2023-05-07T06:27:53;14.00;78.70
75621;DHT22;64574;48.506;-2.750;2023-05-07T06:30:19;14.20;78.70
75621;DHT22;64574;48.506;-2.750;2023-05-07T06:32:45;14.20;78.50
75621;DHT22;64574;48.506;-2.750;2023-05-07T06:35:10;14.40;78.60
75621;DHT22;64574;48.506;-2.750;2023-05-07T06:37:36;14.40;78.50
75621;DHT22;64574;48.506;-2.750;2023-05-07T06:40:05;14.40;78.40
75621;DHT22;64574;48.506;-2.750;2023-05-07T06:42:31;14.50;77.70
75621;DHT22;64574;48.506;-2.750;2023-05-07T06:44:56;14.50;77.70
75621;DHT22;64574;48.506;-2.750;2023-05-07T06:47:22;14.30;77.30
75621;DHT22;64574;48.506;-2.750;2023-05-07T06:49:47;14.10;78.60
75621;DHT22;64574;48.506;-2.750;2023-05-07T06:52:13;14.10;78.70
75621;DHT22;64574;48.506;-2.750;2023-05-07T06:54:38;14.30;78.40
75621;DHT22;64574;48.506;-2.750;2023-05-07T06:57:04;14.20;78.00
75621;DHT22;64574;48.506;-2.750;2023-05-07T06:59:30;14.00;78.60
75621;DHT22;64574;48.506;-2.750;2023-05-07T07:01:55;14.00;79.60
75621;DHT22;64574;48.506;-2.750;2023-05-07T07:04:21;14.20;78.80
75621;DHT22;64574;48.506;-2.750;2023-05-07T07:06:48;14.30;78.60
75621;DHT22;64574;48.506;-2.750;2023-05-07T07:09:13;14.30;78.70
75621;DHT22;64574;48.506;-2.750;2023-05-07T07:11:39;14.40;78.40
75621;DHT22;64574;48.506;-2.750;2023-05-07T07:14:05;14.10;79.10
75621;DHT22;64574;48.506;-2.750;2023-05-07T07:16:31;14.10;79.20
75621;DHT22;64574;48.506;-2.750;2023-05-07T07:18:56;13.90;80.30
75621;DHT22;64574;48.506;-2.750;2023-05-07T07:21:22;13.90;80.50
75621;DHT22;64574;48.506;-2.750;2023-05-07T07:23:47;14.00;80.00
75621;DHT22;64574;48.506;-2.750;2023-05-07T07:26:13;14.00;79.70
75621;DHT22;64574;48.506;-2.750;2023-05-07T07:28:43;14.00;79.60
75621;DHT22;64574;48.506;-2.750;2023-05-07T07:31:09;14.10;79.50
75621;DHT22;64574;48.506;-2.750;2023-05-07T07:33:35;14.00;79.80
75621;DHT22;64574;48.506;-2.750;2023-05-07T07:36:00;14.00;79.70
75621;DHT22;64574;48.506;-2.750;2023-05-07T07:38:26;13.80;80.30
75621;DHT22;64574;48.506;-2.750;2023-05-07T07:40:51;13.90;80.00
75621;DHT22;64574;48.506;-2.750;2023-05-07T07:43:17;14.10;79.20
75621;DHT22;64574;48.506;-2.750;2023-05-07T07:45:43;14.20;79.20
75621;DHT22;64574;48.506;-2.750;2023-05-07T07:48:09;14.00;79.40
75621;DHT22;64574;48.506;-2.750;2023-05-07T07:50:34;14.20;79.20
75621;DHT22;64574;48.506;-2.750;2023-05-07T07:53:00;14.10;79.00
75621;DHT22;64574;48.506;-2.750;2023-05-07T07:55:26;14.30;78.90
75621;DHT22;64574;48.506;-2.750;2023-05-07T07:57:52;14.40;79.00
75621;DHT22;64574;48.506;-2.750;2023-05-07T08:00:18;14.50;78.00
75621;DHT22;64574;48.506;-2.750;2023-05-07T08:02:43;14.40;78.30
75621;DHT22;64574;48.506;-2.750;2023-05-07T08:05:09;14.40;77.90
75621;DHT22;64574;48.506;-2.750;2023-05-07T08:07:35;14.30;78.60
75621;DHT22;64574;48.506;-2.750;2023-05-07T08:10:01;14.30;78.60
75621;DHT22;64574;48.506;-2.750;2023-05-07T08:12:27;14.30;78.60
75621;DHT22;64574;48.506;-2.750;2023-05-07T08:14:53;14.20;78.70
75621;DHT22;64574;48.506;-2.750;2023-05-07T08:17:18;14.10;79.30
75621;DHT22;64574;48.506;-2.750;2023-05-07T08:19:44;14.00;79.20
75621;DHT22;64574;48.506;-2.750;2023-05-07T08:22:10;14.00;80.50
75621;DHT22;64574;48.506;-2.750;2023-05-07T08:24:36;14.30;80.10
75621;DHT22;64574;48.506;-2.750;2023-05-07T08:27:02;14.20;79.10
75621;DHT22;64574;48.506;-2.750;2023-05-07T08:29:27;14.30;79.10
75621;DHT22;64574;48.506;-2.750;2023-05-07T08:31:53;14.40;78.50
75621;DHT22;64574;48.506;-2.750;2023-05-07T08:34:21;14.40;78.70
75621;DHT22;64574;48.506;-2.750;2023-05-07T08:36:47;14.40;78.10
75621;DHT22;64574;48.506;-2.750;2023-05-07T08:39:15;14.30;77.20
75621;DHT22;64574;48.506;-2.750;2023-05-07T08:41:44;14.30;78.20
75621;DHT22;64574;48.506;-2.750;2023-05-07T08:44:12;14.40;77.10
75621;DHT22;64574;48.506;-2.750;2023-05-07T08:46:39;14.40;77.30
75621;DHT22;64574;48.506;-2.750;2023-05-07T08:49:05;14.50;77.30
75621;DHT22;64574;48.506;-2.750;2023-05-07T08:51:31;14.50;76.50
75621;DHT22;64574;48.506;-2.750;2023-05-07T08:53:57;14.50;76.80
75621;DHT22;64574;48.506;-2.750;2023-05-07T08:56:23;14.60;76.50
75621;DHT22;64574;48.506;-2.750;2023-05-07T08:58:49;14.60;76.80
75621;DHT22;64574;48.506;-2.750;2023-05-07T09:01:16;14.70;76.60
75621;DHT22;64574;48.506;-2.750;2023-05-07T09:03:45;14.70;76.40
75621;DHT22;64574;48.506;-2.750;2023-05-07T09:06:12;14.60;76.50
75621;DHT22;64574;48.506;-2.750;2023-05-07T09:08:37;14.60;76.80
75621;DHT22;64574;48.506;-2.750;2023-05-07T09:11:03;14.50;76.90
75621;DHT22;64574;48.506;-2.750;2023-05-07T09:13:29;14.60;76.80
75621;DHT22;64574;48.506;-2.750;2023-05-07T09:15:55;14.80;76.80
75621;DHT22;64574;48.506;-2.750;2023-05-07T09:18:21;14.80;76.80
75621;DHT22;64574;48.506;-2.750;2023-05-07T09:20:48;14.90;77.00
75621;DHT22;64574;48.506;-2.750;2023-05-07T09:23:14;14.90;76.80
75621;DHT22;64574;48.506;-2.750;2023-05-07T09:25:40;14.80;76.80
75621;DHT22;64574;48.506;-2.750;2023-05-07T09:28:05;14.70;77.10
75621;DHT22;64574;48.506;-2.750;2023-05-07T09:30:33;14.80;76.80
75621;DHT22;64574;48.506;-2.750;2023-05-07T09:33:00;14.80;76.50
75621;DHT22;64574;48.506;-2.750;2023-05-07T09:35:27;14.80;76.70
75621;DHT22;64574;48.506;-2.750;2023-05-07T09:37:58;14.80;76.40
75621;DHT22;64574;48.506;-2.750;2023-05-07T09:40:28;15.00;76.20
75621;DHT22;64574;48.506;-2.750;2023-05-07T09:42:55;15.00;74.80
75621;DHT22;64574;48.506;-2.750;2023-05-07T09:45:28;15.00;75.40
75621;DHT22;64574;48.506;-2.750;2023-05-07T09:47:55;15.20;75.20
75621;DHT22;64574;48.506;-2.750;2023-05-07T09:50:26;15.00;73.90
75621;DHT22;64574;48.506;-2.750;2023-05-07T09:52:54;15.00;75.10
75621;DHT22;64574;48.506;-2.750;2023-05-07T09:55:21;15.00;74.80
75621;DHT22;64574;48.506;-2.750;2023-05-07T09:57:52;15.00;74.90
75621;DHT22;64574;48.506;-2.750;2023-05-07T10:00:22;15.00;74.60
75621;DHT22;64574;48.506;-2.750;2023-05-07T10:02:49;15.00;75.40
75621;DHT22;64574;48.506;-2.750;2023-05-07T10:05:18;15.00;75.50
75621;DHT22;64574;48.506;-2.750;2023-05-07T10:07:46;15.00;75.90
75621;DHT22;64574;48.506;-2.750;2023-05-07T10:10:12;14.90;75.80
75621;DHT22;64574;48.506;-2.750;2023-05-07T10:12:38;14.80;75.50
75621;DHT22;64574;48.506;-2.750;2023-05-07T10:15:07;14.70;76.10
75621;DHT22;64574;48.506;-2.750;2023-05-07T10:17:39;14.70;76.70
75621;DHT22;64574;48.506;-2.750;2023-05-07T10:20:06;14.70;76.10
75621;DHT22;64574;48.506;-2.750;2023-05-07T10:22:44;14.70;76.80
75621;DHT22;64574;48.506;-2.750;2023-05-07T10:25:30;14.70;78.20
75621;DHT22;64574;48.506;-2.750;2023-05-07T10:28:01;14.70;77.40
75621;DHT22;64574;48.506;-2.750;2023-05-07T10:33:05;14.70;78.10
75621;DHT22;64574;48.506;-2.750;2023-05-07T10:35:40;14.70;78.40
75621;DHT22;64574;48.506;-2.750;2023-05-07T10:38:06;14.70;78.20
75621;DHT22;64574;48.506;-2.750;2023-05-07T10:40:33;14.60;77.70
75621;DHT22;64574;48.506;-2.750;2023-05-07T10:43:00;14.70;78.60
75621;DHT22;64574;48.506;-2.750;2023-05-07T10:45:27;14.80;78.70
75621;DHT22;64574;48.506;-2.750;2023-05-07T10:48:15;14.70;78.40
75621;DHT22;64574;48.506;-2.750;2023-05-07T10:50:43;14.70;77.60
75621;DHT22;64574;48.506;-2.750;2023-05-07T10:55:51;14.70;78.50
75621;DHT22;64574;48.506;-2.750;2023-05-07T10:58:29;14.70;78.40
75621;DHT22;64574;48.506;-2.750;2023-05-07T11:00:59;14.90;78.30
75621;DHT22;64574;48.506;-2.750;2023-05-07T11:03:26;14.90;77.60
75621;DHT22;64574;48.506;-2.750;2023-05-07T11:06:14;14.90;77.70
75621;DHT22;64574;48.506;-2.750;2023-05-07T11:08:53;14.90;78.00
75621;DHT22;64574;48.506;-2.750;2023-05-07T11:11:33;14.80;77.70
75621;DHT22;64574;48.506;-2.750;2023-05-07T11:14:05;14.80;77.40
75621;DHT22;64574;48.506;-2.750;2023-05-07T11:16:31;14.70;77.70
75621;DHT22;64574;48.506;-2.750;2023-05-07T11:18:58;14.60;77.80
75621;DHT22;64574;48.506;-2.750;2023-05-07T11:21:38;14.70;77.80
75621;DHT22;64574;48.506;-2.750;2023-05-07T11:24:04;14.70;77.50
75621;DHT22;64574;48.506;-2.750;2023-05-07T11:26:52;14.90;77.60
75621;DHT22;64574;48.506;-2.750;2023-05-07T11:29:19;15.00;77.60
75621;DHT22;64574;48.506;-2.750;2023-05-07T11:31:50;14.90;77.10
75621;DHT22;64574;48.506;-2.750;2023-05-07T11:34:24;14.60;77.20
75621;DHT22;64574;48.506;-2.750;2023-05-07T11:36:51;14.70;77.10
75621;DHT22;64574;48.506;-2.750;2023-05-07T11:39:30;14.80;76.10
75621;DHT22;64574;48.506;-2.750;2023-05-07T11:41:57;14.80;76.70
75621;DHT22;64574;48.506;-2.750;2023-05-07T11:44:22;14.90;76.50
75621;DHT22;64574;48.506;-2.750;2023-05-07T11:46:48;14.80;77.10
75621;DHT22;64574;48.506;-2.750;2023-05-07T11:49:14;14.80;76.80
75621;DHT22;64574;48.506;-2.750;2023-05-07T11:51:41;14.70;76.60
75621;DHT22;64574;48.506;-2.750;2023-05-07T11:54:08;14.60;77.10
75621;DHT22;64574;48.506;-2.750;2023-05-07T11:56:37;14.70;76.70
75621;DHT22;64574;48.506;-2.750;2023-05-07T11:59:04;14.50;76.80
75621;DHT22;64574;48.506;-2.750;2023-05-07T12:01:30;14.60;76.90
75621;DHT22;64574;48.506;-2.750;2023-05-07T12:03:55;14.60;76.10
75621;DHT22;64574;48.506;-2.750;2023-05-07T12:06:21;14.70;77.00
75621;DHT22;64574;48.506;-2.750;2023-05-07T12:08:46;14.80;76.70
75621;DHT22;64574;48.506;-2.750;2023-05-07T12:11:21;14.70;75.60
75621;DHT22;64574;48.506;-2.750;2023-05-07T12:13:47;14.50;76.40
75621;DHT22;64574;48.506;-2.750;2023-05-07T12:16:14;14.60;76.80
75621;DHT22;64574;48.506;-2.750;2023-05-07T12:18:40;14.60;76.90
75621;DHT22;64574;48.506;-2.750;2023-05-07T12:21:06;14.70;76.80
75621;DHT22;64574;48.506;-2.750;2023-05-07T12:23:33;14.90;76.60
75621;DHT22;64574;48.506;-2.750;2023-05-07T12:25:59;14.90;76.40
75621;DHT22;64574;48.506;-2.750;2023-05-07T12:28:25;14.90;76.00
75621;DHT22;64574;48.506;-2.750;2023-05-07T12:30:51;14.70;76.50
75621;DHT22;64574;48.506;-2.750;2023-05-07T12:33:18;14.60;77.10
75621;DHT22;64574;48.506;-2.750;2023-05-07T12:35:47;14.70;76.90
75621;DHT22;64574;48.506;-2.750;2023-05-07T12:38:15;14.60;76.60
75621;DHT22;64574;48.506;-2.750;2023-05-07T12:40:47;14.80;76.60
75621;DHT22;64574;48.506;-2.750;2023-05-07T12:43:34;14.70;76.20
75621;DHT22;64574;48.506;-2.750;2023-05-07T12:46:03;14.70;75.90
75621;DHT22;64574;48.506;-2.750;2023-05-07T12:48:29;14.70;76.30
75621;DHT22;64574;48.506;-2.750;2023-05-07T12:51:00;14.80;76.40
75621;DHT22;64574;48.506;-2.750;2023-05-07T12:53:27;14.70;76.00
75621;DHT22;64574;48.506;-2.750;2023-05-07T12:55:57;14.80;75.80
75621;DHT22;64574;48.506;-2.750;2023-05-07T12:58:24;14.60;75.70
75621;DHT22;64574;48.506;-2.750;2023-05-07T13:00:51;14.80;75.50
75621;DHT22;64574;48.506;-2.750;2023-05-07T13:03:37;14.90;75.50
75621;DHT22;64574;48.506;-2.750;2023-05-07T13:06:08;15.00;75.20
75621;DHT22;64574;48.506;-2.750;2023-05-07T13:08:41;14.70;75.10
75621;DHT22;64574;48.506;-2.750;2023-05-07T13:11:09;14.70;75.30
75621;DHT22;64574;48.506;-2.750;2023-05-07T13:13:37;14.80;74.40
75621;DHT22;64574;48.506;-2.750;2023-05-07T13:16:04;14.80;74.60
75621;DHT22;64574;48.506;-2.750;2023-05-07T13:18:32;14.80;74.40
75621;DHT22;64574;48.506;-2.750;2023-05-07T13:20:58;14.70;74.70
75621;DHT22;64574;48.506;-2.750;2023-05-07T13:23:24;14.70;74.80
75621;DHT22;64574;48.506;-2.750;2023-05-07T13:25:50;14.90;74.80
75621;DHT22;64574;48.506;-2.750;2023-05-07T13:28:17;15.00;74.80
75621;DHT22;64574;48.506;-2.750;2023-05-07T13:30:43;14.90;74.30
75621;DHT22;64574;48.506;-2.750;2023-05-07T13:33:09;14.90;74.50
75621;DHT22;64574;48.506;-2.750;2023-05-07T13:35:35;14.70;74.30
75621;DHT22;64574;48.506;-2.750;2023-05-07T13:38:01;14.90;75.00
75621;DHT22;64574;48.506;-2.750;2023-05-07T13:40:26;15.00;74.40
75621;DHT22;64574;48.506;-2.750;2023-05-07T13:42:53;15.00;73.50
75621;DHT22;64574;48.506;-2.750;2023-05-07T13:45:19;14.80;74.10
75621;DHT22;64574;48.506;-2.750;2023-05-07T13:47:46;14.90;73.50
75621;DHT22;64574;48.506;-2.750;2023-05-07T13:50:12;14.90;73.30
75621;DHT22;64574;48.506;-2.750;2023-05-07T13:52:41;14.90;72.80
75621;DHT22;64574;48.506;-2.750;2023-05-07T13:55:09;15.10;73.00
75621;DHT22;64574;48.506;-2.750;2023-05-07T13:57:36;15.20;72.60
75621;DHT22;64574;48.506;-2.750;2023-05-07T14:00:02;15.00;72.70
75621;DHT22;64574;48.506;-2.750;2023-05-07T14:02:30;15.00;72.80
75621;DHT22;64574;48.506;-2.750;2023-05-07T14:04:56;15.10;72.70
75621;DHT22;64574;48.506;-2.750;2023-05-07T14:07:21;15.20;73.20
75621;DHT22;64574;48.506;-2.750;2023-05-07T14:09:47;15.20;73.00
75621;DHT22;64574;48.506;-2.750;2023-05-07T14:12:12;14.90;73.60
75621;DHT22;64574;48.506;-2.750;2023-05-07T14:14:38;15.00;73.90
75621;DHT22;64574;48.506;-2.750;2023-05-07T14:17:03;15.00;73.20
75621;DHT22;64574;48.506;-2.750;2023-05-07T14:19:29;14.90;73.70
75621;DHT22;64574;48.506;-2.750;2023-05-07T14:21:55;14.80;73.40
75621;DHT22;64574;48.506;-2.750;2023-05-07T14:24:20;14.70;74.70
75621;DHT22;64574;48.506;-2.750;2023-05-07T14:26:46;14.70;74.10
75621;DHT22;64574;48.506;-2.750;2023-05-07T14:29:11;14.80;74.10
75621;DHT22;64574;48.506;-2.750;2023-05-07T14:31:37;14.70;74.10
75621;DHT22;64574;48.506;-2.750;2023-05-07T14:34:03;14.80;74.50
75621;DHT22;64574;48.506;-2.750;2023-05-07T14:36:29;14.80;74.60
75621;DHT22;64574;48.506;-2.750;2023-05-07T14:38:57;14.70;74.20
75621;DHT22;64574;48.506;-2.750;2023-05-07T14:41:24;14.70;74.50
75621;DHT22;64574;48.506;-2.750;2023-05-07T14:43:50;14.80;74.50
75621;DHT22;64574;48.506;-2.750;2023-05-07T14:46:19;14.70;74.30
75621;DHT22;64574;48.506;-2.750;2023-05-07T14:48:45;14.70;74.30
75621;DHT22;64574;48.506;-2.750;2023-05-07T14:51:12;14.80;74.20
75621;DHT22;64574;48.506;-2.750;2023-05-07T14:53:38;14.70;74.40
75621;DHT22;64574;48.506;-2.750;2023-05-07T14:56:04;14.50;74.50
75621;DHT22;64574;48.506;-2.750;2023-05-07T14:58:30;14.60;74.70
75621;DHT22;64574;48.506;-2.750;2023-05-07T15:00:55;14.60;75.20
75621;DHT22;64574;48.506;-2.750;2023-05-07T15:03:21;14.70;74.70
75621;DHT22;64574;48.506;-2.750;2023-05-07T15:05:47;14.70;74.30
75621;DHT22;64574;48.506;-2.750;2023-05-07T15:08:12;14.80;74.70
75621;DHT22;64574;48.506;-2.750;2023-05-07T15:10:38;14.80;74.70
75621;DHT22;64574;48.506;-2.750;2023-05-07T15:13:10;14.70;75.10
75621;DHT22;64574;48.506;-2.750;2023-05-07T15:15:36;14.90;75.10
75621;DHT22;64574;48.506;-2.750;2023-05-07T15:18:02;14.70;74.90